sensor_id;sensor_type;location;lat;lon;timestamp;temperature;humidity
14409;DHT22;7289;50.706;4.992;2023-07-22T00:01:55;13.30;99.90
14409;DHT22;7289;50.706;4.992;2023-07-22T00:04:25;13.20;99.90
14409;DHT22;7289;50.706;4.992;2023-07-22T00:06:54;13.20;99.90
14409;DHT22;7289;50.706;4.992;2023-07-22T00:09:22;13.30;99.90
14409;DHT22;7289;50.706;4.992;2023-07-22T00:11:51;13.20;99.90
14409;DHT22;7289;50.706;4.992;2023-07-22T00:14:19;13.30;99.90
14409;DHT22;7289;50.706;4.992;2023-07-22T00:16:49;13.30;99.90
14409;DHT22;7289;50.706;4.992;2023-07-22T00:19:17;13.30;99.90
14409;DHT22;7289;50.706;4.992;2023-07-22T00:21:48;13.30;99.90
14409;DHT22;7289;50.706;4.992;2023-07-22T00:24:16;13.30;99.90
14409;DHT22;7289;50.706;4.992;2023-07-22T00:26:44;13.40;99.90
14409;DHT22;7289;50.706;4.992;2023-07-22T00:29:13;13.40;99.90
14409;DHT22;7289;50.706;4.992;2023-07-22T00:31:41;13.30;99.90
14409;DHT22;7289;50.706;4.992;2023-07-22T00:34:11;13.30;99.90
14409;DHT22;7289;50.706;4.992;2023-07-22T00:36:39;13.30;99.90
14409;DHT22;7289;50.706;4.992;2023-07-22T00:39:08;13.20;99.90
14409;DHT22;7289;50.706;4.992;2023-07-22T00:41:36;13.10;99.90
14409;DHT22;7289;50.706;4.992;2023-07-22T00:44:05;13.10;99.90
14409;DHT22;7289;50.706;4.992;2023-07-22T00:46:33;13.10;99.90
14409;DHT22;7289;50.706;4.992;2023-07-22T00:49:02;13.00;99.90
14409;DHT22;7289;50.706;4.992;2023-07-22T00:51:32;13.00;99.90
14409;DHT22;7289;50.706;4.992;2023-07-22T00:54:00;13.00;99.90
14409;DHT22;7289;50.706;4.992;2023-07-22T00:56:31;13.00;99.90
14409;DHT22;7289;50.706;4.992;2023-07-22T00:59:01;12.90;99.90
14409;DHT22;7289;50.706;4.992;2023-07-22T01:01:29;12.90;99.90
14409;DHT22;7289;50.706;4.992;2023-07-22T01:03:58;12.90;99.90
14409;DHT22;7289;50.706;4.992;2023-07-22T01:06:26;12.90;99.90
14409;DHT22;7289;50.706;4.992;2023-07-22T01:08:58;12.90;99.90
14409;DHT22;7289;50.706;4.992;2023-07-22T01:11:26;12.80;99.90
14409;DHT22;7289;50.706;4.992;2023-07-22T01:13:55;12.80;99.90
14409;DHT22;7289;50.706;4.992;2023-07-22T01:16:27;12.70;99.90
14409;DHT22;7289;50.706;4.992;2023-07-22T01:18:56;12.70;99.90
14409;DHT22;7289;50.706;4.992;2023-07-22T01:21:27;12.70;99.90
14409;DHT22;7289;50.706;4.992;2023-07-22T01:23:57;12.70;99.90
14409;DHT22;7289;50.706;4.992;2023-07-22T01:26:25;12.70;99.90
14409;DHT22;7289;50.706;4.992;2023-07-22T01:29:02;12.70;99.90
14409;DHT22;7289;50.706;4.992;2023-07-22T01:31:34;12.70;99.90
14409;DHT22;7289;50.706;4.992;2023-07-22T01:34:03;12.70;99.90
14409;DHT22;7289;50.706;4.992;2023-07-22T01:36:32;12.70;99.90
14409;DHT22;7289;50.706;4.992;2023-07-22T01:39:01;12.60;99.90
14409;DHT22;7289;50.706;4.992;2023-07-22T01:41:32;12.50;99.90
14409;DHT22;7289;50.706;4.992;2023-07-22T01:44:01;12.40;99.90
14409;DHT22;7289;50.706;4.992;2023-07-22T01:46:29;12.40;99.90
14409;DHT22;7289;50.706;4.992;2023-07-22T01:48:58;12.20;99.90
14409;DHT22;7289;50.706;4.992;2023-07-22T01:51:26;12.30;99.90
14409;DHT22;7289;50.706;4.992;2023-07-22T01:53:54;12.30;99.90
14409;DHT22;7289;50.706;4.992;2023-07-22T01:56:25;12.30;99.90
14409;DHT22;7289;50.706;4.992;2023-07-22T01:58:54;12.30;99.90
14409;DHT22;7289;50.706;4.992;2023-07-22T02:01:22;12.30;99.90
14409;DHT22;7289;50.706;4.992;2023-07-22T02:03:51;12.30;99.90
14409;DHT22;7289;50.706;4.992;2023-07-22T02:06:20;12.30;99.90
14409;DHT22;7289;50.706;4.992;2023-07-22T02:08:48;12.30;99.90
14409;DHT22;7289;50.706;4.992;2023-07-22T02:11:17;12.20;99.90
14409;DHT22;7289;50.706;4.992;2023-07-22T02:13:47;12.30;99.90
14409;DHT22;7289;50.706;4.992;2023-07-22T02:16:15;12.20;99.90
14409;DHT22;7289;50.706;4.992;2023-07-22T02:18:44;12.20;99.90
14409;DHT22;7289;50.706;4.992;2023-07-22T02:21:12;12.20;99.90
14409;DHT22;7289;50.706;4.992;2023-07-22T02:23:40;12.40;99.90
14409;DHT22;7289;50.706;4.992;2023-07-22T02:26:09;12.40;99.90
14409;DHT22;7289;50.706;4.992;2023-07-22T02:28:39;12.50;99.90
14409;DHT22;7289;50.706;4.992;2023-07-22T02:31:08;12.50;99.90
14409;DHT22;7289;50.706;4.992;2023-07-22T02:33:38;12.40;99.90
14409;DHT22;7289;50.706;4.992;2023-07-22T02:36:06;12.40;99.90
14409;DHT22;7289;50.706;4.992;2023-07-22T02:38:35;12.40;99.90
14409;DHT22;7289;50.706;4.992;2023-07-22T02:41:05;12.30;99.90
14409;DHT22;7289;50.706;4.992;2023-07-22T02:43:35;12.20;99.90
14409;DHT22;7289;50.706;4.992;2023-07-22T02:46:05;12.20;99.90
14409;DHT22;7289;50.706;4.992;2023-07-22T02:48:36;12.10;99.90
14409;DHT22;7289;50.706;4.992;2023-07-22T02:51:08;12.00;99.90
14409;DHT22;7289;50.706;4.992;2023-07-22T02:53:37;11.90;99.90
14409;DHT22;7289;50.706;4.992;2023-07-22T02:56:06;11.90;99.90
14409;DHT22;7289;50.706;4.992;2023-07-22T02:58:35;11.90;99.90
14409;DHT22;7289;50.706;4.992;2023-07-22T03:01:03;11.90;99.90
14409;DHT22;7289;50.706;4.992;2023-07-22T03:03:33;11.90;99.90
14409;DHT22;7289;50.706;4.992;2023-07-22T03:06:03;11.90;99.90
14409;DHT22;7289;50.706;4.992;2023-07-22T03:08:31;11.90;99.90
14409;DHT22;7289;50.706;4.992;2023-07-22T03:11:00;11.90;99.90
14409;DHT22;7289;50.706;4.992;2023-07-22T03:13:28;12.00;99.90
14409;DHT22;7289;50.706;4.992;2023-07-22T03:15:57;12.00;99.90
14409;DHT22;7289;50.706;4.992;2023-07-22T03:18:27;12.10;99.90
14409;DHT22;7289;50.706;4.992;2023-07-22T03:20:55;12.10;99.90
14409;DHT22;7289;50.706;4.992;2023-07-22T03:23:25;12.20;99.90
14409;DHT22;7289;50.706;4.992;2023-07-22T03:25:54;12.20;99.90
14409;DHT22;7289;50.706;4.992;2023-07-22T03:28:22;12.20;99.90
14409;DHT22;7289;50.706;4.992;2023-07-22T03:30:52;12.20;99.90
14409;DHT22;7289;50.706;4.992;2023-07-22T03:33:21;12.10;99.90
14409;DHT22;7289;50.706;4.992;2023-07-22T03:35:49;12.10;99.90
14409;DHT22;7289;50.706;4.992;2023-07-22T03:38:18;12.00;99.90
14409;DHT22;7289;50.706;4.992;2023-07-22T03:40:47;12.00;99.90
14409;DHT22;7289;50.706;4.992;2023-07-22T03:43:16;12.00;99.90
14409;DHT22;7289;50.706;4.992;2023-07-22T03:45:44;12.10;99.90
14409;DHT22;7289;50.706;4.992;2023-07-22T03:48:12;12.10;99.90
14409;DHT22;7289;50.706;4.992;2023-07-22T03:50:41;12.10;99.90
14409;DHT22;7289;50.706;4.992;2023-07-22T03:53:09;12.10;99.90
14409;DHT22;7289;50.706;4.992;2023-07-22T03:55:37;12.10;99.90
14409;DHT22;7289;50.706;4.992;2023-07-22T03:58:07;12.10;99.90
14409;DHT22;7289;50.706;4.992;2023-07-22T04:00:37;12.10;99.90
14409;DHT22;7289;50.706;4.992;2023-07-22T04:03:05;12.10;99.90
14409;DHT22;7289;50.706;4.992;2023-07-22T04:05:34;12.10;99.90
14409;DHT22;7289;50.706;4.992;2023-07-22T04:08:03;12.10;99.90
14409;DHT22;7289;50.706;4.992;2023-07-22T04:10:31;12.00;99.90
14409;DHT22;7289;50.706;4.992;2023-07-22T04:12:59;12.10;99.90
14409;DHT22;7289;50.706;4.992;2023-07-22T04:15:30;12.10;99.90
14409;DHT22;7289;50.706;4.992;2023-07-22T04:18:00;12.00;99.90
14409;DHT22;7289;50.706;4.992;2023-07-22T04:20:28;12.10;99.90
14409;DHT22;7289;50.706;4.992;2023-07-22T04:22:57;12.00;99.90
14409;DHT22;7289;50.706;4.992;2023-07-22T04:25:28;12.00;99.90
14409;DHT22;7289;50.706;4.992;2023-07-22T04:27:56;12.10;99.90
14409;DHT22;7289;50.706;4.992;2023-07-22T04:30:25;12.10;99.90
14409;DHT22;7289;50.706;4.992;2023-07-22T04:32:55;12.10;99.90
14409;DHT22;7289;50.706;4.992;2023-07-22T04:35:24;12.20;99.90
14409;DHT22;7289;50.706;4.992;2023-07-22T04:37:52;12.20;99.90
14409;DHT22;7289;50.706;4.992;2023-07-22T04:40:20;12.20;99.90
14409;DHT22;7289;50.706;4.992;2023-07-22T04:42:48;12.20;99.90
14409;DHT22;7289;50.706;4.992;2023-07-22T04:45:17;12.20;99.90
14409;DHT22;7289;50.706;4.992;2023-07-22T04:47:46;12.30;99.90
14409;DHT22;7289;50.706;4.992;2023-07-22T04:50:17;12.40;99.90
14409;DHT22;7289;50.706;4.992;2023-07-22T04:52:49;12.50;99.90
14409;DHT22;7289;50.706;4.992;2023-07-22T04:55:17;12.60;99.90
14409;DHT22;7289;50.706;4.992;2023-07-22T04:57:46;12.70;99.90
14409;DHT22;7289;50.706;4.992;2023-07-22T05:00:14;12.80;99.90
14409;DHT22;7289;50.706;4.992;2023-07-22T05:02:43;12.90;99.90
14409;DHT22;7289;50.706;4.992;2023-07-22T05:05:12;13.10;99.90
14409;DHT22;7289;50.706;4.992;2023-07-22T05:07:42;13.30;99.90
14409;DHT22;7289;50.706;4.992;2023-07-22T05:10:10;13.40;99.90
14409;DHT22;7289;50.706;4.992;2023-07-22T05:12:41;13.50;99.90
14409;DHT22;7289;50.706;4.992;2023-07-22T05:15:10;13.70;99.90
14409;DHT22;7289;50.706;4.992;2023-07-22T05:17:39;14.00;99.90
14409;DHT22;7289;50.706;4.992;2023-07-22T05:20:08;14.20;99.90
14409;DHT22;7289;50.706;4.992;2023-07-22T05:22:38;14.20;99.90
14409;DHT22;7289;50.706;4.992;2023-07-22T05:25:09;14.30;99.90
14409;DHT22;7289;50.706;4.992;2023-07-22T05:27:38;14.30;99.90
14409;DHT22;7289;50.706;4.992;2023-07-22T05:30:07;14.50;99.90
14409;DHT22;7289;50.706;4.992;2023-07-22T05:32:42;14.60;99.90
14409;DHT22;7289;50.706;4.992;2023-07-22T05:35:10;14.70;99.90
14409;DHT22;7289;50.706;4.992;2023-07-22T05:37:39;14.80;99.90
14409;DHT22;7289;50.706;4.992;2023-07-22T05:40:09;14.90;99.90
14409;DHT22;7289;50.706;4.992;2023-07-22T05:42:37;15.00;99.90
14409;DHT22;7289;50.706;4.992;2023-07-22T05:45:06;15.00;99.90
14409;DHT22;7289;50.706;4.992;2023-07-22T05:47:35;15.10;99.90
14409;DHT22;7289;50.706;4.992;2023-07-22T05:50:04;15.20;99.90
14409;DHT22;7289;50.706;4.992;2023-07-22T05:52:33;15.30;99.90
14409;DHT22;7289;50.706;4.992;2023-07-22T05:55:02;15.40;99.90
14409;DHT22;7289;50.706;4.992;2023-07-22T05:57:31;15.40;99.90
14409;DHT22;7289;50.706;4.992;2023-07-22T06:00:00;15.50;99.90
14409;DHT22;7289;50.706;4.992;2023-07-22T06:02:38;15.60;99.90
14409;DHT22;7289;50.706;4.992;2023-07-22T06:05:07;15.60;99.90
14409;DHT22;7289;50.706;4.992;2023-07-22T06:07:35;15.80;99.90
14409;DHT22;7289;50.706;4.992;2023-07-22T06:10:05;15.90;99.90
14409;DHT22;7289;50.706;4.992;2023-07-22T06:12:35;15.80;99.90
14409;DHT22;7289;50.706;4.992;2023-07-22T06:15:04;16.00;99.90
14409;DHT22;7289;50.706;4.992;2023-07-22T06:17:33;16.00;99.90
14409;DHT22;7289;50.706;4.992;2023-07-22T06:20:02;16.00;99.90
14409;DHT22;7289;50.706;4.992;2023-07-22T06:22:31;16.10;99.90
14409;DHT22;7289;50.706;4.992;2023-07-22T06:25:00;16.30;99.90
14409;DHT22;7289;50.706;4.992;2023-07-22T06:27:28;16.40;99.90
14409;DHT22;7289;50.706;4.992;2023-07-22T06:29:59;16.50;99.90
14409;DHT22;7289;50.706;4.992;2023-07-22T06:32:27;16.60;99.90
14409;DHT22;7289;50.706;4.992;2023-07-22T06:34:57;16.70;99.90
14409;DHT22;7289;50.706;4.992;2023-07-22T06:37:26;16.80;99.90
14409;DHT22;7289;50.706;4.992;2023-07-22T06:39:55;17.00;99.90
14409;DHT22;7289;50.706;4.992;2023-07-22T06:42:23;16.90;99.90
14409;DHT22;7289;50.706;4.992;2023-07-22T06:44:53;16.90;99.90
14409;DHT22;7289;50.706;4.992;2023-07-22T06:47:23;17.10;99.90
14409;DHT22;7289;50.706;4.992;2023-07-22T06:49:52;17.30;99.90
14409;DHT22;7289;50.706;4.992;2023-07-22T06:52:20;17.40;99.90
14409;DHT22;7289;50.706;4.992;2023-07-22T06:54:48;17.70;99.90
14409;DHT22;7289;50.706;4.992;2023-07-22T06:57:17;17.80;99.90
14409;DHT22;7289;50.706;4.992;2023-07-22T06:59:45;18.00;99.90
14409;DHT22;7289;50.706;4.992;2023-07-22T07:02:14;18.20;99.90
14409;DHT22;7289;50.706;4.992;2023-07-22T07:04:43;18.30;99.90
14409;DHT22;7289;50.706;4.992;2023-07-22T07:07:15;18.30;99.90
14409;DHT22;7289;50.706;4.992;2023-07-22T07:09:43;18.30;99.90
14409;DHT22;7289;50.706;4.992;2023-07-22T07:12:12;18.40;99.90
14409;DHT22;7289;50.706;4.992;2023-07-22T07:14:41;18.40;99.90
14409;DHT22;7289;50.706;4.992;2023-07-22T07:17:09;18.60;99.90
14409;DHT22;7289;50.706;4.992;2023-07-22T07:19:37;18.50;99.90
14409;DHT22;7289;50.706;4.992;2023-07-22T07:22:07;18.40;99.90
14409;DHT22;7289;50.706;4.992;2023-07-22T07:24:35;18.40;99.90
14409;DHT22;7289;50.706;4.992;2023-07-22T07:27:04;18.70;99.90
14409;DHT22;7289;50.706;4.992;2023-07-22T07:29:33;18.90;99.90
14409;DHT22;7289;50.706;4.992;2023-07-22T07:32:20;19.10;99.90
14409;DHT22;7289;50.706;4.992;2023-07-22T07:34:50;19.40;99.90
14409;DHT22;7289;50.706;4.992;2023-07-22T07:37:20;19.30;99.80
14409;DHT22;7289;50.706;4.992;2023-07-22T07:39:50;19.10;99.90
14409;DHT22;7289;50.706;4.992;2023-07-22T07:42:19;19.20;99.90
14409;DHT22;7289;50.706;4.992;2023-07-22T07:44:47;19.20;99.90
14409;DHT22;7289;50.706;4.992;2023-07-22T07:47:16;19.40;99.90
14409;DHT22;7289;50.706;4.992;2023-07-22T07:49:45;19.50;99.20
14409;DHT22;7289;50.706;4.992;2023-07-22T07:52:13;19.50;99.60
14409;DHT22;7289;50.706;4.992;2023-07-22T07:54:43;19.40;99.30
14409;DHT22;7289;50.706;4.992;2023-07-22T07:57:11;19.30;99.50
14409;DHT22;7289;50.706;4.992;2023-07-22T07:59:39;19.30;99.30
14409;DHT22;7289;50.706;4.992;2023-07-22T08:02:08;19.50;99.30
14409;DHT22;7289;50.706;4.992;2023-07-22T08:04:37;19.60;99.00
14409;DHT22;7289;50.706;4.992;2023-07-22T08:07:06;19.70;99.40
14409;DHT22;7289;50.706;4.992;2023-07-22T08:09:34;19.70;98.80
14409;DHT22;7289;50.706;4.992;2023-07-22T08:12:05;19.80;99.00
14409;DHT22;7289;50.706;4.992;2023-07-22T08:14:33;20.00;98.80
14409;DHT22;7289;50.706;4.992;2023-07-22T08:17:03;20.40;98.40
14409;DHT22;7289;50.706;4.992;2023-07-22T08:19:31;20.50;97.40
14409;DHT22;7289;50.706;4.992;2023-07-22T08:22:00;20.70;96.10
14409;DHT22;7289;50.706;4.992;2023-07-22T08:24:28;20.70;96.80
14409;DHT22;7289;50.706;4.992;2023-07-22T08:26:56;20.70;96.10
14409;DHT22;7289;50.706;4.992;2023-07-22T08:29:26;20.60;96.80
14409;DHT22;7289;50.706;4.992;2023-07-22T08:31:55;20.80;95.80
14409;DHT22;7289;50.706;4.992;2023-07-22T08:34:23;21.00;95.30
14409;DHT22;7289;50.706;4.992;2023-07-22T08:36:52;21.20;94.60
14409;DHT22;7289;50.706;4.992;2023-07-22T08:39:20;21.20;94.40
14409;DHT22;7289;50.706;4.992;2023-07-22T08:41:49;21.10;94.70
14409;DHT22;7289;50.706;4.992;2023-07-22T08:44:19;20.80;94.80
14409;DHT22;7289;50.706;4.992;2023-07-22T08:46:56;20.70;94.90
14409;DHT22;7289;50.706;4.992;2023-07-22T08:49:26;20.70;95.40
14409;DHT22;7289;50.706;4.992;2023-07-22T08:51:56;20.80;95.00
14409;DHT22;7289;50.706;4.992;2023-07-22T08:54:25;20.90;95.10
14409;DHT22;7289;50.706;4.992;2023-07-22T08:56:53;21.30;93.80
14409;DHT22;7289;50.706;4.992;2023-07-22T08:59:24;21.30;93.10
14409;DHT22;7289;50.706;4.992;2023-07-22T09:01:54;21.40;94.00
14409;DHT22;7289;50.706;4.992;2023-07-22T09:04:23;21.40;92.50
14409;DHT22;7289;50.706;4.992;2023-07-22T09:06:52;21.70;92.30
14409;DHT22;7289;50.706;4.992;2023-07-22T09:09:21;21.40;92.30
14409;DHT22;7289;50.706;4.992;2023-07-22T09:11:51;21.30;92.90
14409;DHT22;7289;50.706;4.992;2023-07-22T09:14:20;21.30;92.30
14409;DHT22;7289;50.706;4.992;2023-07-22T09:17:03;21.50;92.40
14409;DHT22;7289;50.706;4.992;2023-07-22T09:19:32;21.70;92.00
14409;DHT22;7289;50.706;4.992;2023-07-22T09:22:00;21.60;91.10
14409;DHT22;7289;50.706;4.992;2023-07-22T09:24:28;21.80;91.70
14409;DHT22;7289;50.706;4.992;2023-07-22T09:26:58;21.60;90.70
14409;DHT22;7289;50.706;4.992;2023-07-22T09:29:34;21.50;91.30
14409;DHT22;7289;50.706;4.992;2023-07-22T09:32:04;21.50;91.00
14409;DHT22;7289;50.706;4.992;2023-07-22T09:34:33;21.60;91.20
14409;DHT22;7289;50.706;4.992;2023-07-22T09:37:01;21.40;91.50
14409;DHT22;7289;50.706;4.992;2023-07-22T09:39:31;21.40;91.50
14409;DHT22;7289;50.706;4.992;2023-07-22T09:41:59;21.20;91.30
14409;DHT22;7289;50.706;4.992;2023-07-22T09:44:30;21.30;91.20
14409;DHT22;7289;50.706;4.992;2023-07-22T09:47:07;21.50;91.30
14409;DHT22;7289;50.706;4.992;2023-07-22T09:49:40;21.60;91.00
14409;DHT22;7289;50.706;4.992;2023-07-22T09:52:10;21.70;90.60
14409;DHT22;7289;50.706;4.992;2023-07-22T09:54:47;21.80;90.80
14409;DHT22;7289;50.706;4.992;2023-07-22T09:57:16;21.80;88.60
14409;DHT22;7289;50.706;4.992;2023-07-22T09:59:46;21.80;88.80
14409;DHT22;7289;50.706;4.992;2023-07-22T10:02:18;21.70;89.20
14409;DHT22;7289;50.706;4.992;2023-07-22T10:04:51;21.80;88.30
14409;DHT22;7289;50.706;4.992;2023-07-22T10:07:21;21.70;88.90
14409;DHT22;7289;50.706;4.992;2023-07-22T10:09:51;21.60;87.90
14409;DHT22;7289;50.706;4.992;2023-07-22T10:12:22;21.70;89.60
14409;DHT22;7289;50.706;4.992;2023-07-22T10:14:52;21.60;88.50
14409;DHT22;7289;50.706;4.992;2023-07-22T10:17:22;21.60;89.10
14409;DHT22;7289;50.706;4.992;2023-07-22T10:19:53;21.60;89.20
14409;DHT22;7289;50.706;4.992;2023-07-22T10:22:22;21.90;88.30
14409;DHT22;7289;50.706;4.992;2023-07-22T10:24:52;22.10;84.50
14409;DHT22;7289;50.706;4.992;2023-07-22T10:27:23;22.10;84.20
14409;DHT22;7289;50.706;4.992;2023-07-22T10:29:54;22.10;84.90
14409;DHT22;7289;50.706;4.992;2023-07-22T10:32:24;22.20;85.80
14409;DHT22;7289;50.706;4.992;2023-07-22T10:34:52;22.30;84.70
14409;DHT22;7289;50.706;4.992;2023-07-22T10:37:21;22.60;85.20
14409;DHT22;7289;50.706;4.992;2023-07-22T10:40:00;22.60;84.70
14409;DHT22;7289;50.706;4.992;2023-07-22T10:42:31;22.70;85.20
14409;DHT22;7289;50.706;4.992;2023-07-22T10:45:00;22.70;83.20
14409;DHT22;7289;50.706;4.992;2023-07-22T10:47:35;22.80;83.60
14409;DHT22;7289;50.706;4.992;2023-07-22T10:50:08;22.80;83.70
14409;DHT22;7289;50.706;4.992;2023-07-22T10:52:39;22.70;81.10
14409;DHT22;7289;50.706;4.992;2023-07-22T10:55:15;22.60;80.70
14409;DHT22;7289;50.706;4.992;2023-07-22T10:57:50;22.60;82.00
14409;DHT22;7289;50.706;4.992;2023-07-22T11:00:20;22.40;81.30
14409;DHT22;7289;50.706;4.992;2023-07-22T11:03:12;22.30;81.20
14409;DHT22;7289;50.706;4.992;2023-07-22T11:05:48;22.30;82.30
14409;DHT22;7289;50.706;4.992;2023-07-22T11:08:35;22.40;82.50
14409;DHT22;7289;50.706;4.992;2023-07-22T11:11:04;22.50;81.90
14409;DHT22;7289;50.706;4.992;2023-07-22T11:13:37;22.90;81.40
14409;DHT22;7289;50.706;4.992;2023-07-22T11:16:10;23.20;77.60
14409;DHT22;7289;50.706;4.992;2023-07-22T11:18:40;23.30;79.50
14409;DHT22;7289;50.706;4.992;2023-07-22T11:21:10;23.50;77.10
14409;DHT22;7289;50.706;4.992;2023-07-22T11:23:39;23.50;77.60
14409;DHT22;7289;50.706;4.992;2023-07-22T11:26:07;23.60;76.70
14409;DHT22;7289;50.706;4.992;2023-07-22T11:28:35;23.70;77.50
14409;DHT22;7289;50.706;4.992;2023-07-22T11:31:04;23.90;76.70
14409;DHT22;7289;50.706;4.992;2023-07-22T11:33:41;23.70;76.20
14409;DHT22;7289;50.706;4.992;2023-07-22T11:36:11;23.50;76.30
14409;DHT22;7289;50.706;4.992;2023-07-22T11:38:40;23.30;77.00
14409;DHT22;7289;50.706;4.992;2023-07-22T11:41:08;23.30;77.50
14409;DHT22;7289;50.706;4.992;2023-07-22T11:43:38;23.30;77.60
14409;DHT22;7289;50.706;4.992;2023-07-22T11:46:07;23.40;77.10
14409;DHT22;7289;50.706;4.992;2023-07-22T11:48:36;23.50;77.70
14409;DHT22;7289;50.706;4.992;2023-07-22T11:51:07;23.20;76.90
14409;DHT22;7289;50.706;4.992;2023-07-22T11:53:35;23.10;76.60
14409;DHT22;7289;50.706;4.992;2023-07-22T11:56:05;23.20;77.30
14409;DHT22;7289;50.706;4.992;2023-07-22T11:58:33;23.10;77.30
14409;DHT22;7289;50.706;4.992;2023-07-22T12:01:03;23.00;77.20
14409;DHT22;7289;50.706;4.992;2023-07-22T12:03:33;23.00;78.40
14409;DHT22;7289;50.706;4.992;2023-07-22T12:06:02;23.10;79.30
14409;DHT22;7289;50.706;4.992;2023-07-22T12:08:32;23.40;76.00
14409;DHT22;7289;50.706;4.992;2023-07-22T12:11:01;23.70;76.30
14409;DHT22;7289;50.706;4.992;2023-07-22T12:13:36;23.60;76.50
14409;DHT22;7289;50.706;4.992;2023-07-22T12:16:05;23.50;76.40
14409;DHT22;7289;50.706;4.992;2023-07-22T12:18:44;23.30;77.10
14409;DHT22;7289;50.706;4.992;2023-07-22T12:21:12;23.50;77.10
14409;DHT22;7289;50.706;4.992;2023-07-22T12:23:42;23.70;77.70
14409;DHT22;7289;50.706;4.992;2023-07-22T12:26:11;24.20;77.10
14409;DHT22;7289;50.706;4.992;2023-07-22T12:28:39;24.60;74.70
14409;DHT22;7289;50.706;4.992;2023-07-22T12:31:08;24.70;73.00
14409;DHT22;7289;50.706;4.992;2023-07-22T12:33:37;24.60;75.00
14409;DHT22;7289;50.706;4.992;2023-07-22T12:36:05;24.80;74.00
14409;DHT22;7289;50.706;4.992;2023-07-22T12:38:34;24.80;71.70
14409;DHT22;7289;50.706;4.992;2023-07-22T12:41:04;24.60;72.20
14409;DHT22;7289;50.706;4.992;2023-07-22T12:43:32;24.50;72.60
14409;DHT22;7289;50.706;4.992;2023-07-22T12:46:00;24.30;73.60
14409;DHT22;7289;50.706;4.992;2023-07-22T12:48:29;24.00;74.40
14409;DHT22;7289;50.706;4.992;2023-07-22T12:50:57;23.70;75.70
14409;DHT22;7289;50.706;4.992;2023-07-22T12:53:26;23.80;74.50
14409;DHT22;7289;50.706;4.992;2023-07-22T12:55:58;24.00;75.60
14409;DHT22;7289;50.706;4.992;2023-07-22T12:58:28;24.10;76.00
14409;DHT22;7289;50.706;4.992;2023-07-22T13:00:56;24.00;75.60
14409;DHT22;7289;50.706;4.992;2023-07-22T13:03:26;24.10;77.10
14409;DHT22;7289;50.706;4.992;2023-07-22T13:05:54;24.00;76.50
14409;DHT22;7289;50.706;4.992;2023-07-22T13:08:23;24.00;78.70
14409;DHT22;7289;50.706;4.992;2023-07-22T13:10:51;24.30;76.90
14409;DHT22;7289;50.706;4.992;2023-07-22T13:13:19;24.40;74.10
14409;DHT22;7289;50.706;4.992;2023-07-22T13:15:49;24.60;75.00
14409;DHT22;7289;50.706;4.992;2023-07-22T13:18:17;24.60;73.10
14409;DHT22;7289;50.706;4.992;2023-07-22T13:20:46;24.50;73.60
14409;DHT22;7289;50.706;4.992;2023-07-22T13:23:14;24.60;75.00
14409;DHT22;7289;50.706;4.992;2023-07-22T13:25:42;24.70;74.20
14409;DHT22;7289;50.706;4.992;2023-07-22T13:28:10;25.10;74.50
14409;DHT22;7289;50.706;4.992;2023-07-22T13:30:39;25.10;72.20
14409;DHT22;7289;50.706;4.992;2023-07-22T13:33:10;24.80;72.80
14409;DHT22;7289;50.706;4.992;2023-07-22T13:35:38;24.50;73.50
14409;DHT22;7289;50.706;4.992;2023-07-22T13:38:06;24.60;73.00
14409;DHT22;7289;50.706;4.992;2023-07-22T13:40:35;24.50;72.00
14409;DHT22;7289;50.706;4.992;2023-07-22T13:43:04;24.40;72.70
14409;DHT22;7289;50.706;4.992;2023-07-22T13:45:32;24.40;72.90
14409;DHT22;7289;50.706;4.992;2023-07-22T13:48:01;24.40;72.40
14409;DHT22;7289;50.706;4.992;2023-07-22T13:50:30;24.40;73.10
14409;DHT22;7289;50.706;4.992;2023-07-22T13:53:01;24.60;71.10
14409;DHT22;7289;50.706;4.992;2023-07-22T13:55:30;24.70;71.70
14409;DHT22;7289;50.706;4.992;2023-07-22T13:57:58;25.00;71.60
14409;DHT22;7289;50.706;4.992;2023-07-22T14:00:27;24.90;70.00
14409;DHT22;7289;50.706;4.992;2023-07-22T14:02:55;24.70;69.70
14409;DHT22;7289;50.706;4.992;2023-07-22T14:05:24;24.60;69.60
14409;DHT22;7289;50.706;4.992;2023-07-22T14:07:54;24.60;71.20
14409;DHT22;7289;50.706;4.992;2023-07-22T14:10:23;24.80;70.00
14409;DHT22;7289;50.706;4.992;2023-07-22T14:12:51;25.00;70.40
14409;DHT22;7289;50.706;4.992;2023-07-22T14:15:20;25.10;70.50
14409;DHT22;7289;50.706;4.992;2023-07-22T14:17:48;25.00;69.40
14409;DHT22;7289;50.706;4.992;2023-07-22T14:20:16;25.20;69.20
14409;DHT22;7289;50.706;4.992;2023-07-22T14:22:47;25.20;68.90
14409;DHT22;7289;50.706;4.992;2023-07-22T14:25:18;25.00;69.50
14409;DHT22;7289;50.706;4.992;2023-07-22T14:27:47;24.80;72.50
14409;DHT22;7289;50.706;4.992;2023-07-22T14:30:15;25.00;69.60
14409;DHT22;7289;50.706;4.992;2023-07-22T14:32:43;24.90;69.00
14409;DHT22;7289;50.706;4.992;2023-07-22T14:35:12;25.00;70.60
14409;DHT22;7289;50.706;4.992;2023-07-22T14:37:40;25.10;70.60
14409;DHT22;7289;50.706;4.992;2023-07-22T14:40:09;24.90;68.90
14409;DHT22;7289;50.706;4.992;2023-07-22T14:42:39;25.00;69.50
14409;DHT22;7289;50.706;4.992;2023-07-22T14:45:08;24.90;69.50
14409;DHT22;7289;50.706;4.992;2023-07-22T14:47:37;24.50;69.80
14409;DHT22;7289;50.706;4.992;2023-07-22T14:50:06;24.50;69.50
14409;DHT22;7289;50.706;4.992;2023-07-22T14:52:34;24.40;71.50
14409;DHT22;7289;50.706;4.992;2023-07-22T14:55:03;24.30;70.10
14409;DHT22;7289;50.706;4.992;2023-07-22T14:57:31;24.20;70.40
14409;DHT22;7289;50.706;4.992;2023-07-22T15:00:01;24.30;71.40
14409;DHT22;7289;50.706;4.992;2023-07-22T15:02:30;24.10;70.90
14409;DHT22;7289;50.706;4.992;2023-07-22T15:04:59;24.20;70.40
14409;DHT22;7289;50.706;4.992;2023-07-22T15:07:27;24.20;71.60
14409;DHT22;7289;50.706;4.992;2023-07-22T15:09:58;24.30;70.90
14409;DHT22;7289;50.706;4.992;2023-07-22T15:12:26;24.40;71.30
14409;DHT22;7289;50.706;4.992;2023-07-22T15:14:54;24.40;70.60
14409;DHT22;7289;50.706;4.992;2023-07-22T15:17:24;24.70;70.60
14409;DHT22;7289;50.706;4.992;2023-07-22T15:19:53;24.80;70.80
14409;DHT22;7289;50.706;4.992;2023-07-22T15:22:21;25.10;70.70
14409;DHT22;7289;50.706;4.992;2023-07-22T15:24:49;25.30;69.90
14409;DHT22;7289;50.706;4.992;2023-07-22T15:27:17;25.30;70.50
14409;DHT22;7289;50.706;4.992;2023-07-22T15:29:46;25.30;69.60
14409;DHT22;7289;50.706;4.992;2023-07-22T15:32:14;25.50;70.20
14409;DHT22;7289;50.706;4.992;2023-07-22T15:34:44;25.70;69.50
14409;DHT22;7289;50.706;4.992;2023-07-22T15:37:12;25.80;70.30
14409;DHT22;7289;50.706;4.992;2023-07-22T15:39:41;25.80;70.00
14409;DHT22;7289;50.706;4.992;2023-07-22T15:42:10;25.80;69.40
14409;DHT22;7289;50.706;4.992;2023-07-22T15:44:38;25.60;70.40
14409;DHT22;7289;50.706;4.992;2023-07-22T15:47:07;25.30;71.00
14409;DHT22;7289;50.706;4.992;2023-07-22T15:49:35;25.10;69.90
14409;DHT22;7289;50.706;4.992;2023-07-22T15:52:05;25.00;70.20
14409;DHT22;7289;50.706;4.992;2023-07-22T15:54:33;24.80;71.90
14409;DHT22;7289;50.706;4.992;2023-07-22T15:57:02;24.70;71.70
14409;DHT22;7289;50.706;4.992;2023-07-22T15:59:30;24.30;72.30